Time;durP1;ratioP1;P1;durP2;ratioP2;P2;SDS_P1;SDS_P2;PMS_P1;PMS_P2;Temp;Humidity;BMP_temperature;BMP_pressure;BME280_temperature;BME280_humidity;BME280_pressure;Samples;Min_cycle;Max_cycle;Signal;HPM_P1;HPM_P2
2023/10/31 00:01:13;;;;;;;0.40;0.40;;;;;;;10.43;100.00;99648.56;10460391;28;20115;-84
2023/10/31 00:06:14;;;;;;;0.40;0.40;;;;;;;10.40;100.00;99643.59;10459302;28;20036;-85
2023/10/31 00:11:14;;;;;;;0.47;0.47;;;;;;;10.42;100.00;99653.16;10460036;28;20037;-85
2023/10/31 00:16:14;;;;;;;0.40;0.40;;;;;;;10.41;100.00;99650.69;10459578;28;20032;-86
2023/10/31 00:21:15;;;;;;;0.50;0.50;;;;;;;10.43;100.00;99654.81;10460165;28;20064;-85
2023/10/31 00:26:15;;;;;;;0.40;0.40;;;;;;;10.52;100.00;99654.50;10459952;28;20120;-84
2023/10/31 00:31:16;;;;;;;0.43;0.43;;;;;;;10.61;100.00;99661.25;10462020;28;20110;-85
2023/10/31 00:36:16;;;;;;;0.50;0.50;;;;;;;10.65;100.00;99657.84;10483318;28;20085;-85
2023/10/31 00:41:16;;;;;;;0.77;0.77;;;;;;;10.69;100.00;99671.78;10486365;28;20040;-83
2023/10/31 00:46:17;;;;;;;0.65;0.65;;;;;;;10.76;100.00;99672.53;10467843;28;20047;-84
2023/10/31 00:51:17;;;;;;;0.40;0.40;;;;;;;10.74;100.00;99677.31;10460825;28;20032;-85
2023/10/31 00:56:18;;;;;;;0.40;0.40;;;;;;;10.74;100.00;99677.31;10475267;28;20373;-85
2023/10/31 01:01:18;;;;;;;0.40;0.40;;;;;;;10.76;100.00;99682.53;10458610;28;20029;-85
2023/10/31 01:06:19;;;;;;;0.50;0.50;;;;;;;10.73;100.00;99691.94;10457048;28;20445;-85
2023/10/31 01:11:19;;;;;;;0.50;0.50;;;;;;;10.74;100.00;99704.41;10455004;28;20029;-85
2023/10/31 01:16:19;;;;;;;1.10;1.10;;;;;;;10.70;100.00;99704.03;10456483;28;20469;-85
2023/10/31 01:21:20;;;;;;;0.40;0.40;;;;;;;10.66;100.00;99716.38;10471515;28;20064;-83
2023/10/31 01:26:20;;;;;;;0.40;0.40;;;;;;;10.61;100.00;99724.34;10455792;28;20033;-83
2023/10/31 01:31:21;;;;;;;0.40;0.40;;;;;;;10.57;100.00;99719.63;10457452;28;20377;-84
2023/10/31 01:36:26;;;;;;;0.30;0.30;;;;;;;10.52;100.00;99730.28;10461524;28;20048;-84
2023/10/31 01:41:26;;;;;;;0.40;0.40;;;;;;;10.49;100.00;99739.69;10438389;28;20082;-83
2023/10/31 01:46:27;;;;;;;0.43;0.43;;;;;;;10.48;100.00;99743.44;10473808;28;20369;-84
2023/10/31 01:51:27;;;;;;;0.50;0.50;;;;;;;10.47;100.00;99750.75;10457515;28;20041;-83
2023/10/31 01:56:28;;;;;;;0.40;0.40;;;;;;;10.46;100.00;99756.38;10439296;28;20037;-84
2023/10/31 02:01:28;;;;;;;0.60;0.60;;;;;;;10.40;100.00;99760.81;10440889;28;20385;-82
2023/10/31 02:06:30;;;;;;;0.30;0.30;;;;;;;10.38;100.00;99765.63;10439928;28;20122;-81
2023/10/31 02:11:30;;;;;;;1.05;1.05;;;;;;;10.39;100.00;99767.28;10462329;28;20068;-83
2023/10/31 02:16:31;;;;;;;0.40;0.40;;;;;;;10.41;100.00;99772.47;10464887;28;20033;-84
2023/10/31 02:21:31;;;;;;;0.30;0.30;;;;;;;10.49;100.00;99772.16;10479964;28;20132;-84
2023/10/31 02:26:32;;;;;;;0.40;0.40;;;;;;;10.49;100.00;99772.16;10459948;28;20063;-82
2023/10/31 02:31:33;;;;;;;0.40;0.40;;;;;;;10.46;100.00;99778.03;10443849;28;20453;-83
2023/10/31 02:36:33;;;;;;;0.40;0.40;;;;;;;10.35;100.00;99768.78;10442764;28;20105;-82
2023/10/31 02:41:34;;;;;;;0.50;0.50;;;;;;;10.28;100.00;99781.56;10462187;28;20036;-83
2023/10/31 02:46:37;;;;;;;0.50;0.50;;;;;;;10.22;100.00;99785.13;10443656;28;20454;-83
2023/10/31 02:51:38;;;;;;;1.25;1.25;;;;;;;10.13;100.00;99789.97;10442950;28;20116;-82
2023/10/31 02:56:39;;;;;;;0.52;0.52;;;;;;;10.07;100.00;99780.03;10459247;28;20431;-83
2023/10/31 03:01:39;;;;;;;0.50;0.50;;;;;;;10.03;100.00;99776.13;10442992;28;20106;-83
2023/10/31 03:06:39;;;;;;;0.50;0.50;;;;;;;9.97;100.00;99785.94;10442354;28;20056;-82
2023/10/31 03:11:40;;;;;;;0.40;0.40;;;;;;;9.94;100.00;99790.97;10459509;28;20033;-82
2023/10/31 03:16:40;;;;;;;0.40;0.40;;;;;;;9.95;100.00;99806.97;10441782;28;20039;-83
2023/10/31 03:21:40;;;;;;;0.47;0.47;;;;;;;9.91;100.00;99813.03;10461107;28;20084;-83
2023/10/31 03:26:41;;;;;;;1.00;1.00;;;;;;;9.89;100.00;99804.31;10459989;28;20041;-83
2023/10/31 03:31:41;;;;;;;0.47;0.47;;;;;;;9.89;100.00;99809.72;10459749;28;20091;-83
2023/10/31 03:36:42;;;;;;;0.43;0.43;;;;;;;9.91;100.00;99805.75;10457867;28;20095;-84
2023/10/31 03:41:43;;;;;;;0.32;0.32;;;;;;;9.92;100.00;99802.03;10457910;28;20492;-83
2023/10/31 03:46:43;;;;;;;0.75;0.68;;;;;;;9.96;100.00;99805.13;10460523;28;20041;-82
2023/10/31 03:51:43;;;;;;;0.45;0.45;;;;;;;9.99;100.00;99810.91;10471929;28;20097;-83
2023/10/31 03:56:44;;;;;;;0.45;0.45;;;;;;;10.01;100.00;99810.66;10482780;28;20044;-83
2023/10/31 04:01:44;;;;;;;0.40;0.40;;;;;;;10.00;100.00;99822.53;10493931;28;20075;-83
2023/10/31 04:06:45;;;;;;;0.40;0.40;;;;;;;10.00;100.00;99836.06;10486680;28;20025;-84
2023/10/31 04:11:45;;;;;;;0.40;0.40;;;;;;;9.96;100.00;99843.81;10468796;28;20044;-84
2023/10/31 04:16:46;;;;;;;0.47;0.47;;;;;;;9.95;100.00;99852.94;10459950;28;20036;-85
2023/10/31 04:21:46;;;;;;;0.45;0.45;;;;;;;9.92;100.00;99853.41;10459387;28;20108;-84
2023/10/31 04:26:46;;;;;;;0.50;0.50;;;;;;;9.90;100.00;99860.06;10446059;28;20044;-83
2023/10/31 04:31:47;;;;;;;0.50;0.50;;;;;;;9.86;100.00;99865.09;10477188;28;20091;-83
2023/10/31 04:36:47;;;;;;;0.50;0.50;;;;;;;9.89;100.00;99866.50;10461017;28;20460;-82
2023/10/31 04:41:48;;;;;;;0.38;0.38;;;;;;;9.82;100.00;99869.25;10461401;28;20389;-82
2023/10/31 04:46:48;;;;;;;0.30;0.30;;;;;;;9.76;100.00;99875.53;10466463;28;20049;-82
2023/10/31 04:51:49;;;;;;;0.30;0.30;;;;;;;9.71;100.00;99875.38;10466878;28;20436;-82
2023/10/31 04:56:49;;;;;;;0.47;0.47;;;;;;;9.64;100.00;99888.09;10480356;28;20033;-82
2023/10/31 05:01:50;;;;;;;0.45;0.45;;;;;;;9.52;100.00;99894.19;10485246;28;20040;-83
2023/10/31 05:06:51;;;;;;;0.50;0.50;;;;;;;9.58;100.00;99905.19;10469010;28;20037;-82
2023/10/31 05:11:51;;;;;;;0.40;0.40;;;;;;;9.74;100.00;99910.09;10473589;28;20459;-83
2023/10/31 05:16:52;;;;;;;0.40;0.40;;;;;;;9.82;100.00;99911.69;10475036;28;20037;-81
2023/10/31 05:21:52;;;;;;;0.40;0.40;;;;;;;9.83;100.00;99922.31;10438520;28;20053;-81
2023/10/31 05:26:53;;;;;;;0.40;0.40;;;;;;;9.80;100.00;99925.44;10471534;28;20037;-82
2023/10/31 05:31:53;;;;;;;0.38;0.38;;;;;;;9.77;100.00;99931.28;10456284;28;20059;-82
2023/10/31 05:36:53;;;;;;;0.43;0.43;;;;;;;9.73;100.00;99922.78;10455839;28;20070;-83
2023/10/31 05:41:54;;;;;;;0.30;0.30;;;;;;;9.71;100.00;99926.75;10441687;28;20048;-83
2023/10/31 05:46:55;;;;;;;0.30;0.30;;;;;;;9.76;100.00;99935.88;10459368;28;20045;-83
2023/10/31 05:51:56;;;;;;;0.40;0.40;;;;;;;9.78;100.00;99944.56;10468972;28;20029;-82
2023/10/31 05:56:56;;;;;;;0.40;0.40;;;;;;;9.67;100.00;99947.97;10474593;28;20037;-83
2023/10/31 06:01:56;;;;;;;0.30;0.30;;;;;;;9.55;100.00;99949.69;10502541;28;20040;-81
2023/10/31 06:06:57;;;;;;;0.40;0.40;;;;;;;9.50;100.00;99946.78;10466777;28;20041;-82
2023/10/31 06:11:57;;;;;;;0.40;0.40;;;;;;;9.51;100.00;99945.75;10454228;28;20037;-81
2023/10/31 06:16:59;;;;;;;3.42;2.45;;;;;;;9.58;100.00;99951.13;10453622;28;20029;-82
2023/10/31 06:21:59;;;;;;;0.40;0.40;;;;;;;9.49;100.00;99959.47;10455508;28;20124;-81
2023/10/31 06:27:00;;;;;;;0.40;0.40;;;;;;;9.33;100.00;99962.66;10453099;28;20041;-81
2023/10/31 06:32:01;;;;;;;0.50;0.50;;;;;;;9.30;100.00;99963.88;10435628;28;20041;-81
2023/10/31 06:37:01;;;;;;;0.50;0.50;;;;;;;9.28;100.00;99971.41;10453764;28;20041;-82
2023/10/31 06:42:02;;;;;;;4.05;3.70;;;;;;;9.35;100.00;99987.59;10469064;28;20033;-81
2023/10/31 06:47:02;;;;;;;0.40;0.40;;;;;;;9.59;100.00;99985.22;10455096;28;20033;-81
2023/10/31 06:52:03;;;;;;;0.40;0.40;;;;;;;9.89;100.00;99993.59;10468062;28;20495;-81
2023/10/31 06:57:05;;;;;;;0.30;0.30;;;;;;;10.11;100.00;99991.41;10460822;28;20041;-81
2023/10/31 07:02:05;;;;;;;0.40;0.40;;;;;;;10.16;100.00;99997.84;10460156;28;20029;-81
2023/10/31 07:07:06;;;;;;;0.50;0.50;;;;;;;10.19;100.00;100010.13;10441909;28;20511;-81
2023/10/31 07:12:06;;;;;;;0.50;0.50;;;;;;;10.10;100.00;100014.13;10458677;28;20082;-81
2023/10/31 07:17:06;;;;;;;0.47;0.47;;;;;;;10.10;100.00;100024.94;10459744;28;20468;-81
2023/10/31 07:22:07;;;;;;;0.70;0.70;;;;;;;10.07;100.00;100039.72;10460229;28;20132;-80
2023/10/31 07:27:07;;;;;;;0.45;0.45;;;;;;;10.14;100.00;100034.28;10457936;28;20033;-81
2023/10/31 07:32:10;;;;;;;0.47;0.47;;;;;;;10.28;100.00;100043.19;10458427;28;20457;-82
2023/10/31 07:37:11;;;;;;;0.50;0.50;;;;;;;10.38;100.00;100052.50;10458823;28;20045;-81
2023/10/31 07:42:11;;;;;;;0.70;0.70;;;;;;;10.38;100.00;100052.50;10459401;28;20045;-82
2023/10/31 07:47:12;;;;;;;0.75;0.75;;;;;;;10.21;100.00;100035.91;10458633;28;20443;-81
2023/10/31 07:52:12;;;;;;;1.15;1.15;;;;;;;10.08;100.00;100044.06;10457836;28;20037;-82
2023/10/31 07:57:12;;;;;;;0.70;0.70;;;;;;;10.04;100.00;100047.44;10458784;28;20051;-81
2023/10/31 08:02:13;;;;;;;0.40;0.40;;;;;;;11.04;100.00;100047.66;10458082;28;20549;-82
2023/10/31 08:07:13;;;;;;;0.70;0.70;;;;;;;12.45;100.00;100049.44;10457522;28;20036;-83
2023/10/31 08:12:14;;;;;;;0.73;0.73;;;;;;;13.32;100.00;100056.25;10457574;28;20037;-83
2023/10/31 08:17:15;;;;;;;0.50;0.50;;;;;;;14.10;100.00;100055.78;10458004;28;20055;-83
2023/10/31 08:22:16;;;;;;;1.65;1.65;;;;;;;14.55;100.00;100057.78;10458483;28;20060;-83
2023/10/31 08:27:16;;;;;;;0.70;0.70;;;;;;;13.54;100.00;100065.47;10457583;28;20052;-83
2023/10/31 08:32:17;;;;;;;3.30;3.10;;;;;;;12.83;100.00;100069.13;10457337;28;20064;-82
2023/10/31 08:37:17;;;;;;;1.65;1.35;;;;;;;12.31;100.00;100075.91;10472868;28;20044;-83
2023/10/31 08:42:18;;;;;;;0.77;0.77;;;;;;;12.04;100.00;100080.03;10457178;28;20099;-82
2023/10/31 08:47:18;;;;;;;0.50;0.50;;;;;;;11.95;100.00;100076.78;10477740;28;20037;-83
2023/10/31 08:52:18;;;;;;;1.60;1.55;;;;;;;11.95;100.00;100078.69;10460993;28;20036;-82
2023/10/31 08:57:19;;;;;;;0.98;0.98;;;;;;;12.09;100.00;100093.75;10465883;28;20040;-83
2023/10/31 09:02:19;;;;;;;0.77;0.77;;;;;;;12.38;100.00;100099.44;10478349;28;20131;-83
2023/10/31 09:07:20;;;;;;;0.68;0.68;;;;;;;12.18;100.00;100102.41;10491173;28;20044;-83
2023/10/31 09:12:20;;;;;;;1.15;1.15;;;;;;;11.99;100.00;100112.44;10483307;28;20033;-83
2023/10/31 09:17:21;;;;;;;0.40;0.40;;;;;;;11.80;100.00;100117.81;10465337;28;20060;-84
2023/10/31 09:22:21;;;;;;;1.38;1.38;;;;;;;12.51;100.00;100115.56;10475462;28;20396;-85
2023/10/31 09:27:21;;;;;;;1.45;1.38;;;;;;;14.17;100.00;100126.44;10466450;28;20044;-84
2023/10/31 09:32:22;;;;;;;1.17;1.17;;;;;;;15.27;100.00;100127.16;10484708;28;20044;-83
2023/10/31 09:37:22;;;;;;;0.60;0.60;;;;;;;15.98;100.00;100127.44;10481843;28;20033;-84
2023/10/31 09:42:23;;;;;;;4.60;4.40;;;;;;;16.56;100.00;100130.63;10480518;28;20033;-84
2023/10/31 09:47:24;;;;;;;0.82;0.82;;;;;;;16.82;100.00;100120.84;10481407;28;20039;-84
2023/10/31 09:52:24;;;;;;;0.95;0.95;;;;;;;15.40;100.00;100139.66;10464013;28;20389;-84
2023/10/31 09:57:26;;;;;;;0.98;0.95;;;;;;;14.25;100.00;100147.84;10477116;28;20029;-83
2023/10/31 10:02:26;;;;;;;0.60;0.60;;;;;;;13.45;100.00;100153.91;10471091;28;20443;-83
2023/10/31 10:07:27;;;;;;;0.60;0.60;;;;;;;13.28;100.00;100152.94;10467114;28;20083;-84
2023/10/31 10:12:27;;;;;;;5.30;3.17;;;;;;;13.15;100.00;100165.66;10453777;28;20048;-83
2023/10/31 10:17:27;;;;;;;2.55;2.45;;;;;;;12.94;100.00;100167.00;10453835;28;20068;-82
2023/10/31 10:22:28;;;;;;;0.95;0.95;;;;;;;13.13;100.00;100173.19;10469219;28;20454;-82
2023/10/31 10:27:29;;;;;;;0.57;0.57;;;;;;;13.31;100.00;100176.97;10437976;28;20115;-82
2023/10/31 10:32:29;;;;;;;2.00;1.83;;;;;;;14.08;100.00;100179.59;10460893;28;20154;-82
2023/10/31 10:37:30;;;;;;;0.80;0.80;;;;;;;15.76;100.00;100180.13;10460001;28;20427;-82
2023/10/31 10:42:47;;;;;;;2.38;1.00;;;;;;;16.13;100.00;100185.00;10461852;28;20156;-82
2023/10/31 10:47:49;;;;;;;1.58;1.48;;;;;;;15.04;100.00;100193.59;10444597;28;20431;-82
2023/10/31 10:52:53;;;;;;;0.60;0.60;;;;;;;14.30;100.00;100199.69;10442696;28;20045;-83
2023/10/31 10:58:01;;;;;;;0.73;0.73;;;;;;;14.00;100.00;100205.28;10459397;28;20021;-83
2023/10/31 11:03:02;;;;;;;0.73;0.73;;;;;;;13.86;100.00;100195.69;10460015;28;20050;-83
2023/10/31 11:08:02;;;;;;;1.90;1.80;;;;;;;13.48;100.00;100207.84;10458755;28;20025;-84
2023/10/31 11:13:04;;;;;;;0.98;0.98;;;;;;;13.17;100.00;100209.72;10441421;28;20120;-84
2023/10/31 11:18:04;;;;;;;1.67;1.65;;;;;;;13.26;100.00;100207.53;10442016;28;20484;-83
2023/10/31 11:23:06;;;;;;;2.65;2.45;;;;;;;14.97;100.00;100210.09;10443085;28;20025;-83
2023/10/31 11:28:17;;;;;;;2.15;2.15;;;;;;;14.74;100.00;100204.72;10442684;28;20115;-83
2023/10/31 11:33:23;;;;;;;1.08;1.08;;;;;;;14.57;100.00;100210.91;10458176;28;20035;-83
2023/10/31 11:38:32;;;;;;;1.45;1.45;;;;;;;14.94;100.00;100209.75;10440844;28;20385;-83
2023/10/31 11:43:52;;;;;;;0.70;0.70;;;;;;;14.89;100.00;100213.19;10444185;28;20151;-83
2023/10/31 11:48:53;;;;;;;2.08;1.30;;;;;;;14.86;100.00;100217.22;10446444;28;20388;-83
2023/10/31 11:53:55;;;;;;;7.38;2.45;;;;;;;15.13;100.00;100207.66;10468754;28;20108;-82
2023/10/31 11:59:02;;;;;;;23.52;5.68;;;;;;;15.07;100.00;100213.00;10451604;28;20033;-83
2023/10/31 12:04:03;;;;;;;1.02;1.02;;;;;;;15.81;100.00;100212.94;10460562;28;20129;-84
2023/10/31 12:09:04;;;;;;;1.52;1.45;;;;;;;15.03;100.00;100220.03;10470180;28;20029;-84
2023/10/31 12:14:05;;;;;;;1.38;1.38;;;;;;;14.92;100.00;100229.06;10469075;28;20167;-82
2023/10/31 12:19:05;;;;;;;3.15;2.97;;;;;;;14.37;100.00;100229.53;10469647;28;20135;-83
2023/10/31 12:24:07;;;;;;;2.45;2.35;;;;;;;13.97;100.00;100230.25;10468826;28;20033;-82
2023/10/31 12:29:11;;;;;;;0.73;0.73;;;;;;;13.60;100.00;100235.91;10464501;28;20043;-83
2023/10/31 12:34:11;;;;;;;3.45;3.25;;;;;;;13.48;100.00;100233.16;10462074;28;20124;-83
2023/10/31 12:39:12;;;;;;;3.92;1.98;;;;;;;13.34;100.00;100239.03;10459608;28;20465;-82
2023/10/31 12:44:14;;;;;;;1.20;1.20;;;;;;;13.20;100.00;100243.78;10463191;28;20037;-83
2023/10/31 12:49:18;;;;;;;4.90;4.50;;;;;;;13.07;100.00;100244.81;10460184;28;20085;-81
2023/10/31 12:54:27;;;;;;;1.77;1.77;;;;;;;13.14;100.00;100248.25;10456438;28;20082;-81
2023/10/31 12:59:28;;;;;;;3.05;2.95;;;;;;;13.01;100.00;100251.16;10455363;28;20036;-81
2023/10/31 13:04:29;;;;;;;3.65;3.47;;;;;;;12.96;100.00;100254.56;10456382;28;20044;-80
2023/10/31 13:09:35;;;;;;;1.90;1.80;;;;;;;12.85;100.00;100251.78;10454409;28;20036;-81
2023/10/31 13:14:36;;;;;;;2.45;2.35;;;;;;;12.80;100.00;100256.03;10454307;28;20052;-81
2023/10/31 13:19:37;;;;;;;2.55;2.45;;;;;;;12.56;100.00;100265.06;10455399;28;20053;-80
2023/10/31 13:24:37;;;;;;;2.75;1.85;;;;;;;12.24;100.00;100265.19;10456084;28;20044;-80
2023/10/31 13:29:39;;;;;;;29.90;2.83;;;;;;;12.10;100.00;100269.94;10454890;28;20049;-80
2023/10/31 13:34:39;;;;;;;4.35;2.88;;;;;;;12.26;100.00;100271.25;10437274;28;20041;-80
2023/10/31 13:39:39;;;;;;;2.42;2.33;;;;;;;12.25;100.00;100269.59;10454134;28;20385;-80
2023/10/31 13:44:40;;;;;;;1.02;1.02;;;;;;;12.20;100.00;100274.03;10453056;28;20120;-80
2023/10/31 13:49:41;;;;;;;0.75;0.75;;;;;;;12.07;100.00;100283.13;10454871;28;20492;-79
2023/10/31 13:54:41;;;;;;;3.42;2.40;;;;;;;11.94;100.00;100285.97;10455006;28;20064;-79
2023/10/31 13:59:42;;;;;;;1.38;1.38;;;;;;;11.91;100.00;100291.81;10455028;28;20037;-80
2023/10/31 14:04:42;;;;;;;0.63;0.63;;;;;;;11.74;100.00;100297.75;10461146;28;20037;-80
2023/10/31 14:09:43;;;;;;;0.82;0.82;;;;;;;11.59;100.00;100297.25;10461469;28;20036;-81
2023/10/31 14:14:44;;;;;;;0.85;0.85;;;;;;;11.44;100.00;100302.94;10460912;28;20040;-81
2023/10/31 14:19:45;;;;;;;4.78;1.80;;;;;;;11.35;100.00;100310.50;10461612;28;20533;-81
2023/10/31 14:24:46;;;;;;;1.42;1.42;;;;;;;11.33;100.00;100315.34;10462166;28;20053;-81
2023/10/31 14:29:47;;;;;;;0.50;0.50;;;;;;;11.38;100.00;100311.97;10444688;28;20094;-81
2023/10/31 14:34:47;;;;;;;0.77;0.77;;;;;;;11.41;100.00;100309.63;10477834;28;20174;-81
2023/10/31 14:39:47;;;;;;;1.38;1.38;;;;;;;11.49;100.00;100307.75;10461311;28;20085;-81
2023/10/31 14:44:48;;;;;;;1.95;1.85;;;;;;;11.67;100.00;100304.28;10459581;28;20122;-82
2023/10/31 14:49:48;;;;;;;2.67;2.50;;;;;;;11.72;100.00;100309.88;10461036;28;20029;-82
2023/10/31 14:54:49;;;;;;;4.95;3.30;;;;;;;11.73;100.00;100323.22;10461820;28;20120;-82
2023/10/31 14:59:50;;;;;;;0.80;0.80;;;;;;;11.52;100.00;100324.41;10459280;28;20484;-82
2023/10/31 15:04:50;;;;;;;2.90;2.50;;;;;;;11.48;100.00;100316.91;10459742;28;20119;-82
2023/10/31 15:09:50;;;;;;;1.38;1.38;;;;;;;11.48;100.00;100325.03;10427242;28;20444;-82
2023/10/31 15:14:51;;;;;;;1.38;1.38;;;;;;;11.46;100.00;100324.44;10457456;28;20037;-83
2023/10/31 15:19:52;;;;;;;2.33;2.22;;;;;;;11.38;100.00;100323.63;10457824;28;20553;-83
2023/10/31 15:24:52;;;;;;;2.45;1.92;;;;;;;11.34;100.00;100324.28;10460335;28;20120;-83
2023/10/31 15:29:52;;;;;;;0.85;0.85;;;;;;;11.31;100.00;100328.25;10458986;28;20037;-83
2023/10/31 15:34:53;;;;;;;0.93;0.93;;;;;;;11.32;100.00;100324.50;10458122;28;20447;-83
2023/10/31 15:39:53;;;;;;;1.17;1.17;;;;;;;11.30;100.00;100332.03;10440690;28;20067;-83
2023/10/31 15:44:55;;;;;;;1.00;1.00;;;;;;;11.23;100.00;100327.66;10458234;28;20041;-83
2023/10/31 15:49:57;;;;;;;3.17;2.92;;;;;;;11.21;100.00;100332.50;10457249;28;20044;-83
2023/10/31 15:54:58;;;;;;;1.10;1.10;;;;;;;11.18;100.00;100339.16;10457371;28;20068;-83
2023/10/31 15:59:58;;;;;;;0.95;0.95;;;;;;;11.11;100.00;100333.78;10457960;28;20035;-83
2023/10/31 16:04:59;;;;;;;3.75;2.33;;;;;;;11.08;100.00;100336.09;10457263;28;20144;-83
2023/10/31 16:09:59;;;;;;;0.90;0.90;;;;;;;11.09;100.00;100332.31;10456748;28;20040;-83
2023/10/31 16:15:00;;;;;;;0.70;0.70;;;;;;;11.01;100.00;100321.72;10456526;28;20033;-84
2023/10/31 16:20:00;;;;;;;2.45;2.35;;;;;;;11.02;100.00;100326.94;10455795;28;20156;-83
2023/10/31 16:25:01;;;;;;;1.55;1.50;;;;;;;11.06;100.00;100332.75;10456021;28;20128;-83
2023/10/31 16:30:01;;;;;;;1.45;1.40;;;;;;;11.04;100.00;100334.84;10439323;28;20080;-83
2023/10/31 16:35:04;;;;;;;1.17;1.17;;;;;;;11.07;100.00;100342.53;10455767;28;20059;-84
2023/10/31 16:40:05;;;;;;;0.77;0.77;;;;;;;11.05;100.00;100350.91;10444941;28;20033;-83
2023/10/31 16:45:06;;;;;;;0.80;0.80;;;;;;;11.08;100.00;100341.50;10457937;28;20037;-83
2023/10/31 16:50:07;;;;;;;0.68;0.68;;;;;;;11.09;100.00;100340.44;10458581;28;20037;-83
2023/10/31 16:55:09;;;;;;;1.52;1.52;;;;;;;11.16;100.00;100346.66;10456154;28;20037;-83
2023/10/31 17:00:10;;;;;;;0.40;0.40;;;;;;;11.14;100.00;100348.78;10455783;28;20064;-83
2023/10/31 17:05:10;;;;;;;2.70;2.60;;;;;;;11.13;100.00;100352.53;10455282;28;20032;-83
2023/10/31 17:10:11;;;;;;;0.80;0.80;;;;;;;11.12;100.00;100345.44;10454662;28;20045;-83
2023/10/31 17:15:11;;;;;;;0.93;0.93;;;;;;;11.11;100.00;100355.47;10454613;28;20099;-84
2023/10/31 17:20:13;;;;;;;0.40;0.40;;;;;;;11.13;100.00;100357.94;10439128;28;20103;-83
2023/10/31 17:25:14;;;;;;;0.63;0.63;;;;;;;11.11;100.00;100366.28;10454870;28;20111;-83
2023/10/31 17:30:14;;;;;;;1.08;1.08;;;;;;;11.20;100.00;100366.91;10454026;28;20094;-83
2023/10/31 17:35:15;;;;;;;1.17;1.17;;;;;;;11.27;100.00;100377.72;10453552;28;20053;-83
2023/10/31 17:40:15;;;;;;;1.77;1.77;;;;;;;11.34;100.00;100365.78;10437127;28;20033;-84
2023/10/31 17:45:20;;;;;;;0.88;0.88;;;;;;;11.38;100.00;100364.28;10437246;28;20029;-83
2023/10/31 17:50:20;;;;;;;0.82;0.82;;;;;;;11.41;100.00;100349.47;10454694;28;20068;-83
2023/10/31 17:55:21;;;;;;;0.60;0.60;;;;;;;11.40;100.00;100348.66;10454165;28;20068;-83
2023/10/31 18:00:22;;;;;;;3.17;2.97;;;;;;;11.39;100.00;100354.28;10454656;28;20044;-83
2023/10/31 18:05:22;;;;;;;0.60;0.60;;;;;;;11.26;100.00;100351.63;10469653;28;20033;-83
2023/10/31 18:10:23;;;;;;;1.10;1.10;;;;;;;11.24;100.00;100351.03;10453742;28;20561;-82
2023/10/31 18:15:23;;;;;;;0.65;0.65;;;;;;;11.29;100.00;100352.03;10454717;28;20384;-83
2023/10/31 18:20:24;;;;;;;1.75;1.67;;;;;;;11.30;100.00;100350.19;10437098;28;20099;-82
2023/10/31 18:25:25;;;;;;;1.58;1.48;;;;;;;11.27;100.00;100356.84;10435952;28;20496;-83
2023/10/31 18:30:25;;;;;;;0.80;0.80;;;;;;;11.27;100.00;100332.47;10453809;28;20131;-83
2023/10/31 18:35:28;;;;;;;0.90;0.90;;;;;;;11.19;100.00;100335.41;10454394;28;20481;-81
2023/10/31 18:40:28;;;;;;;0.85;0.85;;;;;;;11.13;100.00;100336.25;10452447;28;20037;-82
2023/10/31 18:45:29;;;;;;;0.93;0.93;;;;;;;11.21;100.00;100337.91;10434900;28;20386;-82
2023/10/31 18:50:29;;;;;;;20.23;12.00;;;;;;;11.15;100.00;100321.44;10458748;28;20376;-83
2023/10/31 18:55:30;;;;;;;15.95;14.35;;;;;;;11.09;100.00;100329.63;10459987;28;20065;-81
2023/10/31 19:00:30;;;;;;;13.13;11.73;;;;;;;11.13;100.00;100322.72;10459340;28;20048;-82
2023/10/31 19:05:31;;;;;;;18.45;13.30;;;;;;;11.27;100.00;100345.19;10458574;28;20037;-81
2023/10/31 19:10:32;;;;;;;3.00;2.80;;;;;;;11.15;100.00;100340.41;10458391;28;20057;-78
2023/10/31 19:15:32;;;;;;;1.88;1.83;;;;;;;11.23;100.00;100352.06;10460436;28;20361;-81
2023/10/31 19:20:32;;;;;;;0.60;0.60;;;;;;;11.24;100.00;100351.84;10460360;28;20060;-81
2023/10/31 19:25:33;;;;;;;1.33;1.33;;;;;;;11.33;100.00;100352.47;10460079;28;20124;-80
2023/10/31 19:30:33;;;;;;;0.70;0.70;;;;;;;11.36;100.00;100320.31;10460110;28;20098;-81
2023/10/31 19:35:34;;;;;;;0.98;0.98;;;;;;;11.36;100.00;100304.06;10458040;28;20104;-82
2023/10/31 19:40:35;;;;;;;0.60;0.60;;;;;;;11.47;100.00;100335.06;10457455;28;20124;-81
2023/10/31 19:45:39;;;;;;;0.50;0.50;;;;;;;11.50;100.00;100334.63;10458608;28;20065;-82
2023/10/31 19:50:41;;;;;;;4.00;3.80;;;;;;;11.54;100.00;100325.00;10457423;28;20071;-83
2023/10/31 19:55:41;;;;;;;4.03;1.75;;;;;;;11.51;100.00;100336.28;10461239;28;20056;-83
2023/10/31 20:00:42;;;;;;;0.68;0.68;;;;;;;11.43;100.00;100344.69;10459334;28;20029;-85
2023/10/31 20:05:42;;;;;;;0.90;0.90;;;;;;;11.50;100.00;100356.31;10444910;28;20045;-83
2023/10/31 20:10:43;;;;;;;1.67;1.60;;;;;;;11.41;100.00;100319.66;10462243;28;20037;-83
2023/10/31 20:15:43;;;;;;;1.52;1.02;;;;;;;11.24;100.00;100330.19;10463591;28;20048;-82
2023/10/31 20:20:44;;;;;;;1.08;1.08;;;;;;;11.25;100.00;100298.47;10474565;28;20056;-84
2023/10/31 20:25:44;;;;;;;0.38;0.38;;;;;;;11.26;100.00;100300.97;10474093;28;20037;-85
2023/10/31 20:30:45;;;;;;;1.30;1.30;;;;;;;11.13;100.00;100310.00;10464246;28;20464;-85
2023/10/31 20:35:45;;;;;;;1.15;1.15;;;;;;;11.15;100.00;100316.03;10465259;28;20037;-85
2023/10/31 20:40:45;;;;;;;0.70;0.70;;;;;;;11.27;100.00;100327.03;10472359;28;20040;-82
2023/10/31 20:45:46;;;;;;;2.22;1.63;;;;;;;11.38;100.00;100334.47;10478911;28;20126;-83
2023/10/31 20:50:46;;;;;;;0.60;0.60;;;;;;;11.41;100.00;100328.63;10439829;28;20033;-85
2023/10/31 20:55:47;;;;;;;0.50;0.50;;;;;;;11.41;100.00;100346.75;10457974;28;20041;-82
2023/10/31 21:00:47;;;;;;;1.20;1.20;;;;;;;11.35;100.00;100348.44;10454512;28;20112;-81
2023/10/31 21:05:47;;;;;;;0.38;0.38;;;;;;;11.04;100.00;100305.03;10454188;28;20112;-83
2023/10/31 21:10:48;;;;;;;0.68;0.68;;;;;;;10.92;100.00;100329.28;10437648;28;20033;-82
2023/10/31 21:15:49;;;;;;;1.00;1.00;;;;;;;10.85;100.00;100317.63;10454326;28;20037;-83
2023/10/31 21:20:49;;;;;;;0.77;0.77;;;;;;;10.81;100.00;100308.25;10455827;28;20080;-80
2023/10/31 21:25:50;;;;;;;0.55;0.55;;;;;;;10.82;100.00;100313.47;10438081;28;20108;-81
2023/10/31 21:30:52;;;;;;;0.45;0.45;;;;;;;10.94;100.00;100316.31;10454869;28;20037;-81
2023/10/31 21:35:53;;;;;;;0.98;0.98;;;;;;;10.92;100.00;100316.56;10454722;28;20033;-81
2023/10/31 21:40:54;;;;;;;0.65;0.65;;;;;;;10.91;100.00;100319.47;10455388;28;20025;-82
2023/10/31 21:45:54;;;;;;;0.50;0.50;;;;;;;10.94;100.00;100311.75;10454751;28;20123;-81
2023/10/31 21:50:55;;;;;;;2.35;2.15;;;;;;;10.91;100.00;100311.34;10454254;28;20480;-81
2023/10/31 21:55:55;;;;;;;1.67;1.67;;;;;;;10.90;100.00;100315.09;10456206;28;20037;-84
2023/10/31 22:00:58;;;;;;;11.48;1.65;;;;;;;10.94;100.00;100305.50;10454836;28;20061;-83
2023/10/31 22:05:59;;;;;;;0.95;0.95;;;;;;;11.02;100.00;100312.56;10453455;28;20033;-84
2023/10/31 22:10:59;;;;;;;0.60;0.60;;;;;;;10.99;100.00;100311.09;10454805;28;20033;-83
2023/10/31 22:15:59;;;;;;;0.50;0.50;;;;;;;10.92;100.00;100308.44;10459293;28;20037;-83
2023/10/31 22:21:00;;;;;;;0.35;0.35;;;;;;;11.00;100.00;100320.06;10472211;28;20154;-81
2023/10/31 22:26:01;;;;;;;0.50;0.50;;;;;;;11.05;100.00;100320.25;10465104;28;20442;-83
2023/10/31 22:31:01;;;;;;;0.68;0.68;;;;;;;10.98;100.00;100327.59;10472830;28;20040;-84
2023/10/31 22:36:01;;;;;;;0.30;0.30;;;;;;;10.99;100.00;100318.41;10479734;28;20052;-83
2023/10/31 22:41:02;;;;;;;0.60;0.60;;;;;;;11.07;100.00;100319.00;10496512;28;20051;-82
2023/10/31 22:46:08;;;;;;;3.75;3.00;;;;;;;11.13;100.00;100309.16;10482285;28;20033;-82
2023/10/31 22:51:08;;;;;;;0.90;0.90;;;;;;;11.15;100.00;100301.66;10465652;28;20119;-82